Time;durP1;ratioP1;P1;durP2;ratioP2;P2;SDS_P1;SDS_P2;PMS_P1;PMS_P2;Temp;Humidity;BMP_temperature;BMP_pressure;BME280_temperature;BME280_humidity;BME280_pressure;Samples;Min_cycle;Max_cycle;Signal;HPM_P1;HPM_P2
2023/09/04 00:01:50;;;;;;;5.50;3.38;;;10.60;99.90;;;;;;5054967;28;20053;-25
2023/09/04 00:04:16;;;;;;;3.70;2.42;;;10.50;99.90;;;;;;5054228;28;20045;-25
2023/09/04 00:06:42;;;;;;;3.53;1.02;;;10.40;99.90;;;;;;5053808;28;20041;-25
2023/09/04 00:09:07;;;;;;;2.17;1.80;;;10.40;99.90;;;;;;5054676;28;20049;-25
2023/09/04 00:11:33;;;;;;;4.38;2.30;;;10.30;99.90;;;;;;5036674;28;20099;-25
2023/09/04 00:13:59;;;;;;;1.90;1.30;;;10.30;99.90;;;;;;5054995;28;20052;-26
2023/09/04 00:16:24;;;;;;;3.25;1.30;;;10.30;99.90;;;;;;5053460;28;20426;-25
2023/09/04 00:18:50;;;;;;;55.80;3.45;;;10.20;99.90;;;;;;5055171;28;20045;-25
2023/09/04 00:21:16;;;;;;;7.25;1.75;;;10.10;99.90;;;;;;5055129;28;20423;-26
2023/09/04 00:23:41;;;;;;;190.25;8.45;;;10.00;99.90;;;;;;5054818;28;20085;-25
2023/09/04 00:26:07;;;;;;;188.88;7.88;;;9.80;99.90;;;;;;5055230;28;20384;-27
2023/09/04 00:28:33;;;;;;;135.65;7.03;;;9.80;99.90;;;;;;5055000;28;20482;-26
2023/09/04 00:30:58;;;;;;;38.67;4.20;;;9.70;99.90;;;;;;5054099;28;20057;-27
2023/09/04 00:33:24;;;;;;;128.07;6.63;;;9.70;99.90;;;;;;5053173;28;20045;-26
2023/09/04 00:35:50;;;;;;;3.05;2.40;;;9.60;99.90;;;;;;5053141;28;20123;-26
2023/09/04 00:38:16;;;;;;;4.90;3.75;;;9.60;99.90;;;;;;5054590;28;20045;-25
2023/09/04 00:40:41;;;;;;;4.93;3.60;;;9.50;99.90;;;;;;5054685;28;20096;-25
2023/09/04 00:43:07;;;;;;;4.35;3.25;;;9.50;99.90;;;;;;5054134;28;20059;-25
2023/09/04 00:45:35;;;;;;;3.63;3.20;;;9.60;99.90;;;;;;5052988;28;20487;-26
2023/09/04 00:48:03;;;;;;;4.72;3.60;;;9.60;99.90;;;;;;5052895;28;20068;-26
2023/09/04 00:50:29;;;;;;;5.15;3.75;;;9.70;99.90;;;;;;5054118;28;20435;-25
2023/09/04 00:52:59;;;;;;;7.53;5.50;;;9.80;99.90;;;;;;5054613;28;20060;-27
2023/09/04 00:55:25;;;;;;;14.30;6.47;;;9.80;99.90;;;;;;5053986;28;20052;-26
2023/09/04 00:57:52;;;;;;;23.92;6.70;;;9.90;99.90;;;;;;5054271;28;20509;-25
2023/09/04 01:00:23;;;;;;;14.05;7.63;;;9.90;99.90;;;;;;5054479;28;20382;-25
2023/09/04 01:02:49;;;;;;;7.80;6.07;;;10.00;99.90;;;;;;5053943;28;20048;-25
2023/09/04 01:05:15;;;;;;;12.82;6.25;;;10.00;99.90;;;;;;5054128;28;20091;-26
2023/09/04 01:07:42;;;;;;;12.15;6.25;;;10.00;99.90;;;;;;5052524;28;20053;-26
2023/09/04 01:10:09;;;;;;;8.13;5.03;;;9.90;99.90;;;;;;5052527;28;20084;-25
2023/09/04 01:12:46;;;;;;;5.50;4.22;;;10.00;99.90;;;;;;5053746;28;20044;-25
2023/09/04 01:15:13;;;;;;;7.45;4.38;;;9.90;99.90;;;;;;5054031;28;20045;-25
2023/09/04 01:17:40;;;;;;;8.43;4.80;;;9.90;99.90;;;;;;5053663;28;20048;-25
2023/09/04 01:20:30;;;;;;;5.93;4.50;;;9.90;99.90;;;;;;5053645;28;20092;-25
2023/09/04 01:22:57;;;;;;;8.63;4.65;;;10.00;99.90;;;;;;5053092;28;20049;-25
2023/09/04 01:25:33;;;;;;;7.90;5.72;;;10.10;99.90;;;;;;5053602;28;20049;-25
2023/09/04 01:28:10;;;;;;;7.72;5.90;;;10.00;99.90;;;;;;5054034;28;20442;-26
2023/09/04 01:30:51;;;;;;;8.10;5.93;;;10.00;99.90;;;;;;5053011;28;20438;-26
2023/09/04 01:33:22;;;;;;;11.68;7.57;;;10.10;99.90;;;;;;5053539;28;20041;-26
2023/09/04 01:35:50;;;;;;;13.43;7.97;;;10.20;99.90;;;;;;5053819;28;20434;-25
2023/09/04 01:38:16;;;;;;;11.07;7.55;;;10.10;99.90;;;;;;5053464;28;20124;-25
2023/09/04 01:40:42;;;;;;;14.88;9.50;;;10.20;99.90;;;;;;5053197;28;20099;-25
2023/09/04 01:43:08;;;;;;;15.90;10.30;;;10.20;99.90;;;;;;5052362;28;20053;-25
2023/09/04 01:45:34;;;;;;;17.33;10.38;;;10.10;99.90;;;;;;5053479;28;20055;-25
2023/09/04 01:47:59;;;;;;;16.08;11.43;;;10.20;99.90;;;;;;5053591;28;20357;-25
2023/09/04 01:50:25;;;;;;;16.70;11.25;;;10.30;99.90;;;;;;5053871;28;20517;-25
2023/09/04 01:52:51;;;;;;;14.85;9.98;;;10.30;99.90;;;;;;5053199;28;20064;-25
2023/09/04 01:55:16;;;;;;;20.50;11.35;;;10.30;99.90;;;;;;5053340;28;20107;-25
2023/09/04 01:57:42;;;;;;;54.00;13.45;;;10.30;99.90;;;;;;5052880;28;20059;-25
2023/09/04 02:00:09;;;;;;;59.72;11.45;;;10.20;99.90;;;;;;5053290;28;20052;-27
2023/09/04 02:02:34;;;;;;;49.58;12.55;;;10.40;99.90;;;;;;5053817;28;20084;-25
2023/09/04 02:05:00;;;;;;;101.32;14.55;;;10.30;99.90;;;;;;5053748;28;20084;-25
2023/09/04 02:07:26;;;;;;;97.60;14.40;;;10.40;99.90;;;;;;5053144;28;20045;-25
2023/09/04 02:09:52;;;;;;;72.93;12.38;;;10.40;99.90;;;;;;5053161;28;20045;-25
2023/09/04 02:12:17;;;;;;;133.68;15.38;;;10.40;99.90;;;;;;5053144;28;20095;-25
2023/09/04 02:14:43;;;;;;;70.05;11.48;;;10.40;99.90;;;;;;5052800;28;20049;-25
2023/09/04 02:17:09;;;;;;;49.58;12.52;;;10.40;99.90;;;;;;5052127;28;20555;-25
2023/09/04 02:19:36;;;;;;;37.72;11.05;;;10.40;99.90;;;;;;5053026;28;20127;-25
2023/09/04 02:22:01;;;;;;;98.15;16.58;;;10.40;99.90;;;;;;5053037;28;20087;-25
2023/09/04 02:24:27;;;;;;;80.57;16.80;;;10.40;99.90;;;;;;5053063;28;20045;-24
2023/09/04 02:26:53;;;;;;;69.38;13.77;;;10.40;99.90;;;;;;5051739;28;20562;-24
2023/09/04 02:29:18;;;;;;;37.17;11.63;;;10.50;99.90;;;;;;5053010;28;20049;-24
2023/09/04 02:31:44;;;;;;;23.88;12.15;;;10.40;99.90;;;;;;5053024;28;20486;-23
2023/09/04 02:34:10;;;;;;;17.05;11.30;;;10.40;99.90;;;;;;5055169;28;20422;-24
2023/09/04 02:36:36;;;;;;;83.10;17.15;;;10.30;99.90;;;;;;5056577;28;20045;-23
2023/09/04 02:39:01;;;;;;;54.13;15.95;;;10.40;99.90;;;;;;5056552;28;20044;-24
2023/09/04 02:41:27;;;;;;;76.18;14.57;;;10.40;99.90;;;;;;5056484;28;20493;-24
2023/09/04 02:43:53;;;;;;;84.18;15.25;;;10.50;99.90;;;;;;5056364;28;20044;-23
2023/09/04 02:46:19;;;;;;;79.13;14.48;;;10.50;99.90;;;;;;5056654;28;20391;-23
2023/09/04 02:48:45;;;;;;;63.25;14.60;;;10.60;99.90;;;;;;5056321;28;20045;-23
2023/09/04 02:51:11;;;;;;;33.05;10.80;;;10.60;99.90;;;;;;5056652;28;20091;-24
2023/09/04 02:53:36;;;;;;;26.02;12.73;;;10.40;99.90;;;;;;5056342;28;20049;-24
2023/09/04 02:56:03;;;;;;;21.10;13.05;;;10.30;99.90;;;;;;5056230;28;20072;-23
2023/09/04 02:58:29;;;;;;;20.50;12.73;;;10.40;99.90;;;;;;5055247;28;20446;-24
2023/09/04 03:00:54;;;;;;;21.33;13.50;;;10.40;99.90;;;;;;5055215;28;20084;-23
2023/09/04 03:03:20;;;;;;;17.50;12.43;;;10.40;99.90;;;;;;5056663;28;20041;-23
2023/09/04 03:05:46;;;;;;;18.58;13.93;;;10.50;99.90;;;;;;5056135;28;20479;-23
2023/09/04 03:08:12;;;;;;;19.88;13.52;;;10.50;99.90;;;;;;5055922;28;20048;-23
2023/09/04 03:10:38;;;;;;;27.15;17.08;;;10.60;99.90;;;;;;5055944;28;20051;-24
2023/09/04 03:13:04;;;;;;;26.20;16.38;;;10.60;99.90;;;;;;5055900;28;20123;-24
2023/09/04 03:15:29;;;;;;;20.13;13.93;;;10.70;99.90;;;;;;5055944;28;20432;-23
2023/09/04 03:17:55;;;;;;;21.20;14.10;;;10.60;99.90;;;;;;5056373;28;20071;-23
2023/09/04 03:20:21;;;;;;;18.20;13.50;;;10.70;99.90;;;;;;5056327;28;20090;-23
2023/09/04 03:22:46;;;;;;;15.95;12.32;;;10.70;99.90;;;;;;5054815;28;20111;-23
2023/09/04 03:25:12;;;;;;;18.52;12.60;;;10.60;99.90;;;;;;5055728;28;20041;-23
2023/09/04 03:27:38;;;;;;;14.07;10.52;;;10.60;99.90;;;;;;5055548;28;20043;-23
2023/09/04 03:30:04;;;;;;;22.27;11.75;;;10.50;99.90;;;;;;5054674;28;20131;-23
2023/09/04 03:32:30;;;;;;;11.85;8.68;;;10.40;99.90;;;;;;5055541;28;20045;-24
2023/09/04 03:34:56;;;;;;;10.98;9.10;;;10.30;99.90;;;;;;5055499;28;20372;-23
2023/09/04 03:37:22;;;;;;;10.48;8.77;;;10.30;99.90;;;;;;5055455;28;20491;-24
2023/09/04 03:39:47;;;;;;;12.90;10.20;;;10.20;99.90;;;;;;5055429;28;20045;-23
2023/09/04 03:42:13;;;;;;;13.45;9.65;;;10.10;99.90;;;;;;5055626;28;20445;-23
2023/09/04 03:44:39;;;;;;;10.00;8.65;;;10.20;99.90;;;;;;5053510;28;20092;-23
2023/09/04 03:47:05;;;;;;;7.75;6.95;;;10.00;99.90;;;;;;5055263;28;20052;-23
2023/09/04 03:49:30;;;;;;;8.00;7.20;;;10.10;99.90;;;;;;5054326;28;20126;-23
2023/09/04 03:51:56;;;;;;;7.85;6.75;;;9.90;99.90;;;;;;5055175;28;20049;-23
2023/09/04 03:54:22;;;;;;;10.50;8.55;;;9.90;99.90;;;;;;5053934;28;20037;-23
2023/09/04 03:56:49;;;;;;;12.60;8.95;;;9.90;99.90;;;;;;5038023;28;20131;-23
2023/09/04 03:59:15;;;;;;;12.25;9.65;;;10.00;99.90;;;;;;5054159;28;20395;-23
2023/09/04 04:01:40;;;;;;;10.18;8.50;;;10.00;99.90;;;;;;5037498;28;20045;-23
2023/09/04 04:04:10;;;;;;;10.13;8.65;;;9.90;99.90;;;;;;5053952;28;20045;-23
2023/09/04 04:06:36;;;;;;;10.07;8.38;;;9.90;99.90;;;;;;5055448;28;20430;-23
2023/09/04 04:09:03;;;;;;;14.63;10.57;;;9.90;99.90;;;;;;5055434;28;20053;-23
2023/09/04 04:11:28;;;;;;;13.35;8.75;;;10.00;99.90;;;;;;5053952;28;20049;-23
2023/09/04 04:13:54;;;;;;;12.90;9.57;;;9.90;99.90;;;;;;5054783;28;20095;-23
2023/09/04 04:16:20;;;;;;;12.20;9.02;;;9.90;99.90;;;;;;5055535;28;20044;-23
2023/09/04 04:18:46;;;;;;;13.52;9.93;;;9.90;99.90;;;;;;5053709;28;20429;-23
2023/09/04 04:21:11;;;;;;;14.13;10.48;;;10.00;99.90;;;;;;5054589;28;20505;-23
2023/09/04 04:23:37;;;;;;;14.75;11.48;;;10.00;99.90;;;;;;5054299;28;20041;-23
2023/09/04 04:26:03;;;;;;;13.50;10.75;;;10.00;99.90;;;;;;5054976;28;20041;-23
2023/09/04 04:28:29;;;;;;;18.13;12.93;;;9.90;99.90;;;;;;5055041;28;20080;-23
2023/09/04 04:30:57;;;;;;;7.57;6.00;;;10.00;99.90;;;;;;5054456;28;20150;-23
2023/09/04 04:33:22;;;;;;;4.70;3.65;;;9.90;99.90;;;;;;5054436;28;20045;-23
2023/09/04 04:35:53;;;;;;;9.20;6.45;;;9.70;99.90;;;;;;5054370;28;20509;-23
2023/09/04 04:38:19;;;;;;;12.90;9.20;;;9.50;99.90;;;;;;5054983;28;20056;-23
2023/09/04 04:40:44;;;;;;;10.48;7.50;;;9.50;99.90;;;;;;5054281;28;20041;-23
2023/09/04 04:43:10;;;;;;;14.68;10.60;;;9.60;99.90;;;;;;5054007;28;20499;-23
2023/09/04 04:45:36;;;;;;;13.02;9.90;;;9.60;99.90;;;;;;5053889;28;20049;-23
2023/09/04 04:48:03;;;;;;;19.63;12.40;;;9.60;99.90;;;;;;5053459;28;20091;-23
2023/09/04 04:50:29;;;;;;;20.55;14.13;;;9.80;99.90;;;;;;5054725;28;20055;-23
2023/09/04 04:52:55;;;;;;;19.00;13.20;;;9.90;99.90;;;;;;5054077;28;20131;-23
2023/09/04 04:55:20;;;;;;;25.33;15.48;;;10.00;99.90;;;;;;5054333;28;20459;-22
2023/09/04 04:57:46;;;;;;;24.67;15.07;;;10.10;99.90;;;;;;5053744;28;20579;-23
2023/09/04 05:00:12;;;;;;;25.77;16.55;;;10.20;99.90;;;;;;5053936;28;20501;-23
2023/09/04 05:02:38;;;;;;;27.38;17.00;;;10.30;99.90;;;;;;5053946;28;20128;-23
2023/09/04 05:05:04;;;;;;;27.15;17.20;;;10.40;99.90;;;;;;5052717;28;20132;-23
2023/09/04 05:07:30;;;;;;;29.52;18.38;;;10.60;99.90;;;;;;5053729;28;20107;-23
2023/09/04 05:09:56;;;;;;;35.17;20.33;;;10.60;99.90;;;;;;5053820;28;20048;-23
2023/09/04 05:12:23;;;;;;;32.75;18.38;;;10.70;99.90;;;;;;5053578;28;20041;-23
2023/09/04 05:14:49;;;;;;;27.63;18.75;;;10.70;99.90;;;;;;5053687;28;20053;-23
2023/09/04 05:17:15;;;;;;;33.47;20.65;;;10.80;99.90;;;;;;5054545;28;20064;-22
2023/09/04 05:19:41;;;;;;;31.77;18.75;;;10.90;99.90;;;;;;5053635;28;20483;-23
2023/09/04 05:22:07;;;;;;;27.75;18.20;;;10.90;99.90;;;;;;5054000;28;20044;-23
2023/09/04 05:24:33;;;;;;;33.00;19.80;;;11.00;99.90;;;;;;5053952;28;20060;-23
2023/09/04 05:26:58;;;;;;;35.97;21.48;;;11.00;99.90;;;;;;5053541;28;20045;-23
2023/09/04 05:29:24;;;;;;;34.30;20.50;;;11.00;99.90;;;;;;5054395;28;20071;-23
2023/09/04 05:31:51;;;;;;;32.00;20.23;;;11.20;99.90;;;;;;5052872;28;20049;-23
2023/09/04 05:34:17;;;;;;;35.33;20.63;;;11.20;99.90;;;;;;5053524;28;20057;-22
2023/09/04 05:36:43;;;;;;;36.85;21.52;;;11.20;99.90;;;;;;5053782;28;20033;-22
2023/09/04 05:39:09;;;;;;;33.33;20.23;;;11.30;99.90;;;;;;5053438;28;20462;-23
2023/09/04 05:41:36;;;;;;;33.78;19.55;;;11.40;99.90;;;;;;5053480;28;20163;-22
2023/09/04 05:44:02;;;;;;;37.08;21.50;;;11.50;99.90;;;;;;5053334;28;20132;-23
2023/09/04 05:46:28;;;;;;;33.60;21.83;;;11.50;99.90;;;;;;5053903;28;20037;-23
2023/09/04 05:48:53;;;;;;;38.40;21.50;;;11.60;99.90;;;;;;5053077;28;20048;-23
2023/09/04 05:51:19;;;;;;;37.55;21.42;;;11.50;99.90;;;;;;5053908;28;20085;-23
2023/09/04 05:53:45;;;;;;;33.35;20.17;;;11.60;99.90;;;;;;5053879;28;20102;-23
2023/09/04 05:56:11;;;;;;;35.67;20.75;;;11.80;99.90;;;;;;5053332;28;20125;-23
2023/09/04 05:58:44;;;;;;;30.02;18.63;;;11.80;99.90;;;;;;5036086;28;20041;-23
2023/09/04 06:01:11;;;;;;;33.65;18.92;;;11.80;99.90;;;;;;5053298;28;20510;-23
2023/09/04 06:03:36;;;;;;;30.63;19.85;;;11.90;99.90;;;;;;5053858;28;20514;-23
2023/09/04 06:06:02;;;;;;;30.27;18.42;;;12.00;99.90;;;;;;5053215;28;20053;-23
2023/09/04 06:08:30;;;;;;;31.10;19.58;;;12.10;99.90;;;;;;5053236;28;20487;-23
2023/09/04 06:10:55;;;;;;;32.95;19.23;;;12.10;99.90;;;;;;5056150;28;20045;-23
2023/09/04 06:13:21;;;;;;;30.83;18.00;;;12.10;99.90;;;;;;5055885;28;20055;-23
2023/09/04 06:15:51;;;;;;;29.88;19.13;;;12.20;99.90;;;;;;5057030;28;20041;-23
2023/09/04 06:18:16;;;;;;;29.15;19.02;;;12.30;99.90;;;;;;5055987;28;20061;-23
2023/09/04 06:20:43;;;;;;;27.52;17.30;;;12.40;99.90;;;;;;5056886;28;20048;-23
2023/09/04 06:23:08;;;;;;;32.53;18.52;;;12.50;99.90;;;;;;5056869;28;20047;-23
2023/09/04 06:25:38;;;;;;;27.83;17.60;;;12.50;99.90;;;;;;5057387;28;20470;-23
2023/09/04 06:28:08;;;;;;;27.05;17.40;;;12.40;99.90;;;;;;5056690;28;20048;-23
2023/09/04 06:30:34;;;;;;;29.00;18.80;;;12.50;99.90;;;;;;5056658;28;20048;-23
2023/09/04 06:33:00;;;;;;;24.95;17.95;;;12.60;99.90;;;;;;5056702;28;20045;-23
2023/09/04 06:35:26;;;;;;;34.28;20.42;;;12.70;99.90;;;;;;5057200;28;20045;-23
2023/09/04 06:37:52;;;;;;;26.70;18.23;;;12.70;99.90;;;;;;5056653;28;20120;-23
2023/09/04 06:40:18;;;;;;;27.85;18.30;;;12.90;99.90;;;;;;5055369;28;20049;-24
2023/09/04 06:42:43;;;;;;;27.20;18.52;;;12.90;99.90;;;;;;5057040;28;20064;-23
2023/09/04 06:45:10;;;;;;;23.65;17.42;;;13.00;99.90;;;;;;5056390;28;20056;-23
2023/09/04 06:47:35;;;;;;;25.13;16.90;;;13.20;99.90;;;;;;5056376;28;20044;-23
2023/09/04 06:50:02;;;;;;;25.02;16.92;;;13.30;99.90;;;;;;5056381;28;20053;-23
2023/09/04 06:52:28;;;;;;;22.75;15.98;;;13.40;99.90;;;;;;5055386;28;20053;-23
2023/09/04 06:54:53;;;;;;;22.92;16.63;;;13.50;99.90;;;;;;5056270;28;20403;-24
2023/09/04 06:57:19;;;;;;;22.60;16.95;;;13.60;99.90;;;;;;5056209;28;20091;-23
2023/09/04 06:59:45;;;;;;;20.92;15.45;;;13.70;99.90;;;;;;5055044;28;20045;-23
2023/09/04 07:02:10;;;;;;;23.80;15.48;;;13.80;99.90;;;;;;5056160;28;20045;-23
2023/09/04 07:04:36;;;;;;;20.13;14.82;;;13.90;99.90;;;;;;5056349;28;20049;-23
2023/09/04 07:07:02;;;;;;;21.58;15.30;;;14.00;99.90;;;;;;5054904;28;20509;-23
2023/09/04 07:09:28;;;;;;;17.50;13.05;;;14.10;99.90;;;;;;5056014;28;20041;-24
2023/09/04 07:11:54;;;;;;;19.67;13.35;;;14.30;99.90;;;;;;5056767;28;20045;-23
2023/09/04 07:14:19;;;;;;;20.00;12.77;;;14.40;99.90;;;;;;5056168;28;20056;-23
2023/09/04 07:16:45;;;;;;;15.38;12.18;;;14.50;99.90;;;;;;5056674;28;20041;-23
2023/09/04 07:19:11;;;;;;;11.77;10.57;;;14.60;99.90;;;;;;5055662;28;20131;-23
2023/09/04 07:21:36;;;;;;;11.13;9.93;;;14.80;99.90;;;;;;5055807;28;20131;-23
2023/09/04 07:24:03;;;;;;;13.68;10.05;;;14.90;99.90;;;;;;5054628;28;20083;-23
2023/09/04 07:26:29;;;;;;;11.77;9.05;;;15.00;99.90;;;;;;5055635;28;20057;-24
2023/09/04 07:28:55;;;;;;;11.20;8.82;;;15.10;99.90;;;;;;5055650;28;20088;-24
2023/09/04 07:31:21;;;;;;;8.95;8.05;;;15.20;99.90;;;;;;5055915;28;20088;-24
2023/09/04 07:33:48;;;;;;;8.48;7.57;;;15.40;99.90;;;;;;5056140;28;20379;-24
2023/09/04 07:36:13;;;;;;;12.27;7.60;;;15.50;99.90;;;;;;5054269;28;20045;-24
2023/09/04 07:38:39;;;;;;;8.98;7.22;;;15.60;99.90;;;;;;5055993;28;20132;-24
2023/09/04 07:41:05;;;;;;;7.15;6.40;;;15.80;99.90;;;;;;5055295;28;20060;-24
2023/09/04 07:43:32;;;;;;;6.85;5.97;;;15.90;99.90;;;;;;5055190;28;20068;-24
2023/09/04 07:45:58;;;;;;;6.35;5.68;;;16.00;99.90;;;;;;5055875;28;20094;-24
2023/09/04 07:48:24;;;;;;;6.68;5.93;;;16.20;99.90;;;;;;5054810;28;20049;-24
2023/09/04 07:50:52;;;;;;;7.10;5.85;;;16.30;99.90;;;;;;5054135;28;20041;-24
2023/09/04 07:53:19;;;;;;;5.68;5.07;;;16.50;99.90;;;;;;5054774;28;20080;-24
2023/09/04 07:55:45;;;;;;;6.47;5.72;;;16.70;99.90;;;;;;5055671;28;20473;-24
2023/09/04 07:58:11;;;;;;;7.57;5.57;;;16.80;99.90;;;;;;5053920;28;20053;-23
2023/09/04 08:00:42;;;;;;;6.03;5.43;;;17.00;99.90;;;;;;5020949;28;20126;-24
2023/09/04 08:03:07;;;;;;;7.97;4.45;;;17.10;99.90;;;;;;5038313;28;20067;-24
2023/09/04 08:05:34;;;;;;;8.30;5.30;;;17.20;99.90;;;;;;5053717;28;20502;-24
2023/09/04 08:07:59;;;;;;;6.72;4.45;;;17.40;99.90;;;;;;5054815;28;20048;-24
2023/09/04 08:10:25;;;;;;;4.50;3.72;;;17.50;99.90;;;;;;5054798;28;20045;-24
2023/09/04 08:12:51;;;;;;;4.93;3.80;;;17.60;99.90;;;;;;5053847;28;20051;-23
2023/09/04 08:15:16;;;;;;;6.82;3.97;;;17.70;99.90;;;;;;5055334;28;20052;-24
2023/09/04 08:17:45;;;;;;;5.20;4.13;;;17.90;99.90;;;;;;5054747;28;20091;-24
2023/09/04 08:20:12;;;;;;;7.32;3.78;;;18.00;99.90;;;;;;5055281;28;20164;-23
2023/09/04 08:22:38;;;;;;;6.35;3.42;;;18.20;99.90;;;;;;5053699;28;20060;-24
2023/09/04 08:25:04;;;;;;;5.32;3.33;;;18.30;99.90;;;;;;5054817;28;20339;-24
2023/09/04 08:27:29;;;;;;;4.15;3.45;;;18.30;99.90;;;;;;5053649;28;20048;-24
2023/09/04 08:29:55;;;;;;;5.22;3.03;;;18.50;99.90;;;;;;5020133;28;20125;-24
2023/09/04 08:32:21;;;;;;;4.40;3.00;;;18.50;99.90;;;;;;5053887;28;20049;-25
2023/09/04 08:34:46;;;;;;;4.05;3.17;;;18.60;99.90;;;;;;5054382;28;20078;-24
2023/09/04 08:37:12;;;;;;;4.05;3.47;;;18.70;99.90;;;;;;5053406;28;20497;-24
2023/09/04 08:39:38;;;;;;;7.55;3.42;;;18.90;99.90;;;;;;5054004;28;20131;-24
2023/09/04 08:42:07;;;;;;;5.05;3.30;;;19.00;99.90;;;;;;5053973;28;20060;-24
2023/09/04 08:44:35;;;;;;;4.90;2.65;;;19.10;99.90;;;;;;5054402;28;20052;-24
2023/09/04 08:47:03;;;;;;;5.45;3.28;;;19.30;99.90;;;;;;5054152;28;20037;-24
2023/09/04 08:49:28;;;;;;;3.03;2.03;;;19.40;99.90;;;;;;5054126;28;20124;-24
2023/09/04 08:51:56;;;;;;;3.58;1.88;;;19.50;1.00;;;;;;5054610;28;20084;-24
2023/09/04 08:54:22;;;;;;;5.35;2.60;;;19.60;99.90;;;;;;5053678;28;20067;-24
2023/09/04 08:56:48;;;;;;;3.78;2.17;;;19.60;99.90;;;;;;5054556;28;20044;-24
2023/09/04 08:59:13;;;;;;;4.57;2.85;;;19.60;76.90;;;;;;5053346;28;20037;-25
2023/09/04 09:01:41;;;;;;;6.40;2.00;;;19.70;1.00;;;;;;5052726;28;20091;-24
2023/09/04 09:04:08;;;;;;;4.13;2.45;;;19.90;1.00;;;;;;5053954;28;20110;-24
2023/09/04 09:06:35;;;;;;;3.80;1.60;;;20.20;99.90;;;;;;5052883;28;20085;-25
2023/09/04 09:09:02;;;;;;;3.55;2.10;;;20.90;99.90;;;;;;5054639;28;20048;-26
2023/09/04 09:11:28;;;;;;;2.90;1.52;;;22.00;99.90;;;;;;5052865;28;20493;-26
2023/09/04 09:13:54;;;;;;;4.03;1.48;;;23.30;1.00;;;;;;5054598;28;20402;-26
2023/09/04 09:16:20;;;;;;;1.98;1.42;;;23.40;33.70;;;;;;5054260;28;20451;-25
2023/09/04 09:18:47;;;;;;;2.55;2.03;;;23.80;99.90;;;;;;5053717;28;20095;-25
2023/09/04 09:21:34;;;;;;;4.25;1.60;;;24.30;1.00;;;;;;5053704;28;20068;-25
2023/09/04 09:24:07;;;;;;;3.35;1.23;;;24.90;99.90;;;;;;5036153;28;20051;-26
2023/09/04 09:26:33;;;;;;;3.63;1.75;;;25.40;1.00;;;;;;5054379;28;20062;-26
2023/09/04 09:29:02;;;;;;;4.35;1.50;;;25.60;99.90;;;;;;5035785;28;20526;-26
2023/09/04 09:31:29;;;;;;;3.35;1.10;;;25.70;1.00;;;;;;5053561;28;20495;-26
2023/09/04 09:33:55;;;;;;;4.70;1.60;;;26.30;1.00;;;;;;5053780;28;20120;-26
2023/09/04 09:36:21;;;;;;;2.78;1.50;;;26.60;99.90;;;;;;5052377;28;20563;-26
2023/09/04 09:38:47;;;;;;;4.70;1.70;;;26.70;99.90;;;;;;5035526;28;20491;-26
2023/09/04 09:41:13;;;;;;;3.67;1.60;;;26.80;99.90;;;;;;5052842;28;20119;-26
2023/09/04 09:43:41;;;;;;;3.08;1.33;;;26.70;99.90;;;;;;5055134;28;20099;-26
2023/09/04 09:46:08;;;;;;;4.75;1.90;;;26.60;99.90;;;;;;5057584;28;20056;-26
2023/09/04 09:48:40;;;;;;;1.42;1.33;;;26.70;99.90;;;;;;5056302;28;20407;-26
2023/09/04 09:51:06;;;;;;;2.85;1.80;;;26.90;99.90;;;;;;5057857;28;20098;-26
2023/09/04 09:53:49;;;;;;;3.03;1.42;;;27.10;99.90;;;;;;5058235;28;20126;-26
2023/09/04 09:56:17;;;;;;;2.50;1.50;;;27.50;99.90;;;;;;5057956;28;20060;-26
2023/09/04 09:58:45;;;;;;;3.63;1.40;;;27.70;99.90;;;;;;5057338;28;20053;-26
2023/09/04 10:01:13;;;;;;;1.88;1.48;;;27.80;99.90;;;;;;5058133;28;20143;-26
2023/09/04 10:03:39;;;;;;;3.63;1.45;;;27.60;99.90;;;;;;5057286;28;20114;-26
2023/09/04 10:06:06;;;;;;;2.33;1.70;;;27.70;99.90;;;;;;5057221;28;20491;-26
2023/09/04 10:08:38;;;;;;;3.55;1.63;;;27.70;99.90;;;;;;5057099;28;20045;-26
2023/09/04 10:11:09;;;;;;;2.78;1.17;;;28.10;99.90;;;;;;5057227;28;20057;-26
2023/09/04 10:13:43;;;;;;;3.95;1.80;;;28.30;99.90;;;;;;5055999;28;20090;-26
2023/09/04 10:16:14;;;;;;;2.72;1.50;;;28.60;69.30;;;;;;5057200;28;20463;-26
2023/09/04 10:18:43;;;;;;;2.03;1.40;;;28.60;52.50;;;;;;5057315;28;20076;-26
2023/09/04 10:21:15;;;;;;;1.92;1.60;;;28.50;86.90;;;;;;5056680;28;20456;-26
2023/09/04 10:23:49;;;;;;;1.88;1.20;;;28.60;89.10;;;;;;5057239;28;20529;-26
2023/09/04 10:26:35;;;;;;;2.75;1.75;;;28.70;51.50;;;;;;5056999;28;20094;-26
2023/09/04 10:29:11;;;;;;;2.90;1.60;;;28.50;4.40;;;;;;5039319;28;20131;-26
2023/09/04 10:31:37;;;;;;;2.33;1.60;;;28.40;23.80;;;;;;5057048;28;20376;-26
2023/09/04 10:34:03;;;;;;;3.88;1.75;;;28.50;38.40;;;;;;5055550;28;20044;-26
2023/09/04 10:36:30;;;;;;;4.00;1.52;;;28.60;53.80;;;;;;5055453;28;20403;-26
2023/09/04 10:39:01;;;;;;;3.85;1.60;;;28.90;63.30;;;;;;5056583;28;20553;-26
2023/09/04 10:41:31;;;;;;;3.53;1.50;;;29.00;39.10;;;;;;5056419;28;20044;-26
2023/09/04 10:43:58;;;;;;;3.45;1.60;;;29.20;74.10;;;;;;5055475;28;20483;-26
2023/09/04 10:46:23;;;;;;;4.32;1.92;;;29.40;59.20;;;;;;5022119;28;20044;-26
2023/09/04 10:48:51;;;;;;;3.13;1.40;;;29.30;39.40;;;;;;5038889;28;20147;-26
2023/09/04 10:51:29;;;;;;;2.35;1.63;;;29.30;29.50;;;;;;5056055;28;20484;-26
2023/09/04 10:54:02;;;;;;;2.50;1.75;;;29.60;1.00;;;;;;5056090;28;20081;-26
2023/09/04 10:56:29;;;;;;;3.53;1.50;;;29.40;13.00;;;;;;5056332;28;20086;-26
2023/09/04 10:59:03;;;;;;;2.30;1.50;;;29.80;32.50;;;;;;5055299;28;20053;-26
2023/09/04 11:01:34;;;;;;;4.63;1.58;;;30.00;6.00;;;;;;5056218;28;20592;-26
2023/09/04 11:04:02;;;;;;;2.40;1.58;;;30.10;11.90;;;;;;5054920;28;20421;-26
2023/09/04 11:06:27;;;;;;;2.58;1.65;;;30.10;6.30;;;;;;5056560;28;20045;-26
2023/09/04 11:08:56;;;;;;;2.58;1.50;;;30.40;12.80;;;;;;5056101;28;20418;-26
2023/09/04 11:11:26;;;;;;;2.22;1.15;;;30.70;1.00;;;;;;5055868;28;20071;-26
2023/09/04 11:13:56;;;;;;;5.35;1.40;;;29.90;1.00;;;;;;5056828;28;20075;-27
2023/09/04 11:16:24;;;;;;;1.20;1.10;;;29.80;1.00;;;;;;5056429;28;20187;-27
2023/09/04 11:19:01;;;;;;;1.90;1.23;;;29.70;1.00;;;;;;5055146;28;20115;-26
2023/09/04 11:21:32;;;;;;;1.63;1.10;;;29.50;1.00;;;;;;5056194;28;20049;-26
2023/09/04 11:23:58;;;;;;;1.55;1.27;;;29.00;1.00;;;;;;5056033;28;20503;-26
2023/09/04 11:26:24;;;;;;;4.15;1.00;;;28.80;1.00;;;;;;5055642;28;20041;-26
2023/09/04 11:28:49;;;;;;;2.38;1.23;;;28.40;1.00;;;;;;5056500;28;20373;-26
2023/09/04 11:31:17;;;;;;;2.80;1.40;;;28.20;1.00;;;;;;5055061;28;20374;-26
2023/09/04 11:33:48;;;;;;;4.05;1.40;;;28.30;1.00;;;;;;5055551;28;20052;-26
2023/09/04 11:36:14;;;;;;;1.52;0.90;;;28.70;1.00;;;;;;5055843;28;20052;-26
2023/09/04 11:38:40;;;;;;;3.45;1.83;;;29.10;1.00;;;;;;5054189;28;20045;-28
2023/09/04 11:41:20;;;;;;;2.65;1.50;;;29.50;1.00;;;;;;5055274;28;20056;-27
2023/09/04 11:43:46;;;;;;;3.10;1.20;;;30.00;1.00;;;;;;5054211;28;20049;-24
2023/09/04 11:46:12;;;;;;;3.70;1.10;;;30.50;1.00;;;;;;5055679;28;20059;-25
2023/09/04 11:48:42;;;;;;;1.75;1.05;;;30.70;1.00;;;;;;5037748;28;20050;-25
2023/09/04 11:51:10;;;;;;;2.85;1.30;;;30.80;1.00;;;;;;5055400;28;20052;-25
2023/09/04 11:53:37;;;;;;;2.95;1.20;;;30.50;1.00;;;;;;5055227;28;20045;-24
2023/09/04 11:56:03;;;;;;;4.65;1.35;;;30.70;1.00;;;;;;5055149;28;20045;-25
2023/09/04 11:58:29;;;;;;;2.17;1.00;;;30.60;1.00;;;;;;5054948;28;20057;-25
2023/09/04 12:00:57;;;;;;;1.98;0.90;;;30.40;1.00;;;;;;5037634;28;20047;-24
2023/09/04 12:03:23;;;;;;;3.13;1.20;;;29.60;1.00;;;;;;5055018;28;20053;-24
2023/09/04 12:05:51;;;;;;;4.00;1.08;;;29.60;1.00;;;;;;5054055;28;20045;-24
2023/09/04 12:08:18;;;;;;;1.30;0.93;;;29.20;1.00;;;;;;5054818;28;20041;-25
2023/09/04 12:10:43;;;;;;;1.88;1.00;;;29.10;1.00;;;;;;5054797;28;20041;-24
2023/09/04 12:13:11;;;;;;;2.05;1.08;;;29.10;1.00;;;;;;5054578;28;20063;-24
2023/09/04 12:15:38;;;;;;;1.77;0.90;;;29.20;1.00;;;;;;5055015;28;20118;-25
2023/09/04 12:18:05;;;;;;;3.67;1.05;;;29.00;1.00;;;;;;5053566;28;20045;-25
2023/09/04 12:20:40;;;;;;;2.08;1.33;;;29.10;1.00;;;;;;5054948;28;20052;-24
2023/09/04 12:23:06;;;;;;;2.22;1.20;;;29.30;1.00;;;;;;5054423;28;20482;-24
2023/09/04 12:25:43;;;;;;;1.88;0.77;;;29.30;1.00;;;;;;5054591;28;20056;-24
2023/09/04 12:28:11;;;;;;;2.20;1.25;;;29.80;1.00;;;;;;5054518;28;20059;-24
2023/09/04 12:30:45;;;;;;;2.78;1.17;;;29.80;1.00;;;;;;5054577;28;20076;-24
2023/09/04 12:33:18;;;;;;;1.25;0.95;;;29.80;1.00;;;;;;5054745;28;20102;-24
2023/09/04 12:35:53;;;;;;;2.85;1.13;;;30.10;1.00;;;;;;5053219;28;20136;-24
2023/09/04 12:38:19;;;;;;;1.52;0.80;;;29.90;1.00;;;;;;5054388;28;20128;-24
2023/09/04 12:40:46;;;;;;;2.17;1.45;;;30.00;1.00;;;;;;5054231;28;20083;-25